Time;durP1;ratioP1;P1;durP2;ratioP2;P2;SDS_P1;SDS_P2;PMS_P1;PMS_P2;Temp;Humidity;BMP_temperature;BMP_pressure;BME280_temperature;BME280_humidity;BME280_pressure;Samples;Min_cycle;Max_cycle;Signal;HPM_P1;HPM_P2
2023/08/08 00:01:10;;;;;;;4.00;1.58;;;;;;;13.79;100.00;99972.41;5072032;28;20500;-75
2023/08/08 00:03:35;;;;;;;6.57;1.70;;;;;;;13.80;100.00;99970.34;5072196;28;20024;-75
2023/08/08 00:06:01;;;;;;;2.90;1.52;;;;;;;13.82;100.00;99970.59;5072486;28;20020;-74
2023/08/08 00:08:26;;;;;;;3.40;1.73;;;;;;;13.80;100.00;99976.06;5090340;28;20078;-76
2023/08/08 00:10:52;;;;;;;4.35;1.80;;;;;;;13.81;100.00;99969.03;5072697;28;20029;-75
2023/08/08 00:13:17;;;;;;;8.23;2.08;;;;;;;13.84;100.00;99971.63;5073390;28;20381;-76
2023/08/08 00:15:43;;;;;;;2.58;1.90;;;;;;;13.90;100.00;99972.41;5072898;28;20470;-77
2023/08/08 00:18:08;;;;;;;5.82;1.75;;;;;;;13.91;100.00;99956.75;5074098;28;20412;-77
2023/08/08 00:20:34;;;;;;;2.88;1.55;;;;;;;13.91;100.00;99973.19;5074236;28;20044;-76
2023/08/08 00:22:59;;;;;;;6.15;1.65;;;;;;;13.86;100.00;99979.72;5074121;28;20066;-75
2023/08/08 00:25:25;;;;;;;3.55;1.38;;;;;;;13.86;100.00;99976.88;5073922;28;20079;-75
2023/08/08 00:27:50;;;;;;;3.78;1.25;;;;;;;13.83;100.00;99981.56;5074160;28;20044;-76
2023/08/08 00:30:15;;;;;;;5.68;1.60;;;;;;;13.79;100.00;99981.03;5074246;28;20028;-77
2023/08/08 00:32:41;;;;;;;3.42;1.67;;;;;;;13.69;100.00;99982.59;5074017;28;20485;-77
2023/08/08 00:35:07;;;;;;;6.10;2.00;;;;;;;13.71;100.00;99985.75;5074202;28;20181;-76
2023/08/08 00:37:33;;;;;;;3.30;1.55;;;;;;;13.68;100.00;99988.88;5072269;28;20358;-75
2023/08/08 00:39:58;;;;;;;2.33;1.58;;;;;;;13.73;100.00;99988.09;5073985;28;20143;-75
2023/08/08 00:42:23;;;;;;;7.10;1.63;;;;;;;13.73;100.00;99983.16;5073762;28;20473;-76
2023/08/08 00:44:49;;;;;;;5.88;1.73;;;;;;;13.74;100.00;99981.06;5074102;28;20024;-76
2023/08/08 00:47:14;;;;;;;2.05;1.20;;;;;;;13.69;100.00;99982.59;5073831;28;20491;-75
2023/08/08 00:49:40;;;;;;;6.05;1.63;;;;;;;13.67;100.00;99985.22;5072484;28;20024;-77
2023/08/08 00:52:06;;;;;;;5.03;1.30;;;;;;;13.70;100.00;99992.00;5089279;28;20063;-75
2023/08/08 00:54:31;;;;;;;3.92;1.55;;;;;;;13.66;100.00;99991.50;5072324;28;20032;-75
2023/08/08 00:56:57;;;;;;;2.83;1.73;;;;;;;13.67;100.00;99993.84;5073389;28;20380;-75
2023/08/08 00:59:23;;;;;;;2.97;1.88;;;;;;;13.70;100.00;99989.13;5073621;28;20074;-74
2023/08/08 01:01:48;;;;;;;4.93;1.40;;;;;;;13.72;100.00;99993.06;5072123;28;20040;-74
2023/08/08 01:04:14;;;;;;;3.83;1.67;;;;;;;13.72;100.00;99989.41;5073515;28;20025;-76
2023/08/08 01:06:50;;;;;;;4.85;1.42;;;;;;;13.68;100.00;99988.88;5073567;28;20066;-76
2023/08/08 01:09:32;;;;;;;5.07;1.65;;;;;;;13.66;100.00;99997.22;5088968;28;20041;-77
2023/08/08 01:11:58;;;;;;;3.97;1.52;;;;;;;13.56;100.00;100002.44;5072066;28;20028;-76
2023/08/08 01:14:25;;;;;;;6.35;1.60;;;;;;;13.48;100.00;99993.56;5089131;28;20474;-75
2023/08/08 01:16:51;;;;;;;6.40;2.58;;;;;;;13.41;100.00;99994.06;5072152;28;20064;-75
2023/08/08 01:19:25;;;;;;;5.85;1.80;;;;;;;13.36;100.00;99994.84;5072756;28;20020;-75
2023/08/08 01:21:52;;;;;;;3.95;2.00;;;;;;;13.30;100.00;99999.78;5069745;28;20393;-76
2023/08/08 01:24:22;;;;;;;4.55;1.80;;;;;;;13.19;100.00;99996.13;5070121;28;20025;-76
2023/08/08 01:26:48;;;;;;;8.00;1.58;;;;;;;13.15;100.00;99996.34;5070032;28;20020;-75
2023/08/08 01:29:13;;;;;;;2.88;1.60;;;;;;;13.06;100.00;99999.47;5070340;28;20421;-76
2023/08/08 01:31:39;;;;;;;4.22;1.85;;;;;;;13.02;100.00;99987.47;5071173;28;20473;-76
2023/08/08 01:34:04;;;;;;;3.97;1.80;;;;;;;12.98;100.00;99998.41;5071349;28;20037;-76
2023/08/08 01:36:40;;;;;;;5.47;2.22;;;;;;;12.96;100.00;100006.75;5086865;28;20083;-76
2023/08/08 01:39:09;;;;;;;4.55;2.30;;;;;;;12.87;100.00;99999.16;5071045;28;20123;-77
2023/08/08 01:41:38;;;;;;;3.63;1.77;;;;;;;12.85;100.00;100001.00;5053089;28;20032;-78
2023/08/08 01:44:04;;;;;;;4.40;1.75;;;;;;;12.81;100.00;99995.50;5055232;28;20039;-77
2023/08/08 01:46:30;;;;;;;3.50;1.58;;;;;;;12.75;100.00;99991.81;5074278;28;20031;-76
2023/08/08 01:48:58;;;;;;;3.75;1.55;;;;;;;12.72;100.00;99984.25;5074234;28;20051;-75
2023/08/08 01:51:25;;;;;;;8.25;2.03;;;;;;;12.63;100.00;99985.28;5075921;28;20104;-76
2023/08/08 01:53:50;;;;;;;4.10;1.58;;;;;;;12.64;100.00;99988.94;5075758;28;20028;-77
2023/08/08 01:56:16;;;;;;;3.08;1.52;;;;;;;12.54;100.00;99978.97;5077217;28;20033;-76
2023/08/08 01:58:41;;;;;;;7.03;2.28;;;;;;;12.51;100.00;99969.31;5076957;28;20086;-76
2023/08/08 02:01:07;;;;;;;4.45;1.77;;;;;;;12.54;100.00;99982.63;5076588;28;20098;-75
2023/08/08 02:03:32;;;;;;;5.28;1.83;;;;;;;12.50;100.00;99984.97;5076998;28;20377;-76
2023/08/08 02:05:57;;;;;;;4.88;1.63;;;;;;;12.47;100.00;99990.91;5076901;28;20033;-74
2023/08/08 02:08:23;;;;;;;3.95;2.42;;;;;;;12.43;100.00;99987.53;5076536;28;20454;-75
2023/08/08 02:10:48;;;;;;;3.95;1.67;;;;;;;12.38;100.00;99986.19;5075575;28;20028;-76
2023/08/08 02:13:14;;;;;;;2.20;1.55;;;;;;;12.32;100.00;99981.69;5058636;28;20036;-76
2023/08/08 02:15:39;;;;;;;6.85;1.77;;;;;;;12.27;100.00;99986.88;5076450;28;20482;-76
2023/08/08 02:18:05;;;;;;;4.43;1.58;;;;;;;12.24;100.00;99982.19;5076296;28;20135;-75
2023/08/08 02:20:31;;;;;;;4.72;1.80;;;;;;;12.21;100.00;100000.38;5092449;28;20024;-76
2023/08/08 02:22:56;;;;;;;3.85;2.28;;;;;;;12.22;100.00;99999.09;5075083;28;20032;-76
2023/08/08 02:25:21;;;;;;;6.72;2.13;;;;;;;12.18;100.00;99994.91;5076694;28;20107;-76
2023/08/08 02:27:47;;;;;;;4.82;1.92;;;;;;;12.19;100.00;100000.13;5076410;28;20449;-75
2023/08/08 02:30:13;;;;;;;5.32;1.40;;;;;;;12.14;100.00;99988.63;5076251;28;20029;-75
2023/08/08 02:32:38;;;;;;;6.57;2.40;;;;;;;12.22;100.00;100004.03;5076764;28;20481;-75
2023/08/08 02:35:04;;;;;;;4.13;1.70;;;;;;;12.16;100.00;99998.28;5076392;28;20020;-75
2023/08/08 02:37:29;;;;;;;6.07;1.77;;;;;;;12.15;100.00;100001.66;5091755;28;20028;-76
2023/08/08 02:39:55;;;;;;;4.68;1.67;;;;;;;12.10;100.00;99993.81;5076523;28;20392;-75
2023/08/08 02:42:20;;;;;;;4.57;2.33;;;;;;;12.10;100.00;99988.09;5076337;28;20461;-75
2023/08/08 02:44:46;;;;;;;2.75;1.10;;;;;;;12.06;100.00;99984.69;5076131;28;20457;-76
2023/08/08 02:47:11;;;;;;;4.57;2.10;;;;;;;12.07;100.00;99994.84;5091683;28;20035;-74
2023/08/08 02:49:37;;;;;;;2.80;1.58;;;;;;;12.03;100.00;99992.22;5074695;28;20024;-75
2023/08/08 02:52:02;;;;;;;2.63;1.40;;;;;;;12.03;100.00;99994.28;5076249;28;20032;-76
2023/08/08 02:54:28;;;;;;;4.65;1.52;;;;;;;12.02;100.00;99992.72;5102158;28;20089;-76
2023/08/08 02:56:54;;;;;;;3.33;1.65;;;;;;;12.02;100.00;99998.44;5086324;28;20025;-76
2023/08/08 02:59:20;;;;;;;6.10;1.77;;;;;;;11.96;100.00;99989.81;5083432;28;20024;-76
2023/08/08 03:01:47;;;;;;;5.78;1.58;;;;;;;11.94;100.00;100009.59;5077277;28;20059;-75
2023/08/08 03:04:12;;;;;;;3.72;1.50;;;;;;;11.92;100.00;100003.59;5074702;28;20029;-76
2023/08/08 03:06:38;;;;;;;5.25;2.03;;;;;;;11.97;100.00;100011.44;5076103;28;20021;-76
2023/08/08 03:09:03;;;;;;;3.60;1.52;;;;;;;11.96;100.00;100014.81;5075822;28;20016;-75
2023/08/08 03:11:28;;;;;;;3.65;1.15;;;;;;;11.97;100.00;100010.66;5075721;28;20567;-75
2023/08/08 03:13:54;;;;;;;2.50;1.45;;;;;;;11.95;100.00;100016.91;5076139;28;20028;-76
2023/08/08 03:16:20;;;;;;;3.20;1.50;;;;;;;11.92;100.00;100015.03;5074057;28;20024;-76
2023/08/08 03:18:45;;;;;;;3.95;1.45;;;;;;;11.93;100.00;100015.81;5091102;28;20027;-75
2023/08/08 03:21:11;;;;;;;4.18;1.35;;;;;;;11.95;100.00;100022.63;5074436;28;20405;-76
2023/08/08 03:23:36;;;;;;;3.42;1.45;;;;;;;11.91;100.00;100015.56;5075308;28;20072;-75
2023/08/08 03:26:01;;;;;;;6.75;1.77;;;;;;;11.92;100.00;100017.13;5091029;28;20099;-75
2023/08/08 03:28:27;;;;;;;3.80;1.55;;;;;;;11.92;100.00;100023.63;5074047;28;20469;-76
2023/08/08 03:30:52;;;;;;;4.25;1.48;;;;;;;11.90;100.00;100026.22;5075325;28;20079;-75
2023/08/08 03:33:18;;;;;;;4.80;1.83;;;;;;;11.92;100.00;100029.34;5075306;28;20461;-76
2023/08/08 03:35:43;;;;;;;5.68;2.00;;;;;;;11.89;100.00;100029.59;5090741;28;20028;-76
2023/08/08 03:38:09;;;;;;;4.47;2.17;;;;;;;11.93;100.00;100035.88;5090867;28;20024;-76
2023/08/08 03:40:34;;;;;;;2.65;1.45;;;;;;;11.89;100.00;100043.91;5075107;28;20358;-76
2023/08/08 03:42:59;;;;;;;4.57;1.75;;;;;;;11.91;100.00;100033.53;5073668;28;20419;-75
2023/08/08 03:45:25;;;;;;;5.93;1.98;;;;;;;11.89;100.00;100038.97;5090404;28;20027;-76
2023/08/08 03:47:50;;;;;;;8.65;2.13;;;;;;;11.91;100.00;100042.13;5075049;28;20070;-75
2023/08/08 03:50:16;;;;;;;3.55;1.88;;;;;;;11.90;100.00;100043.41;5074722;28;20056;-76
2023/08/08 03:52:41;;;;;;;2.25;1.75;;;;;;;11.90;100.00;100046.28;5074662;28;20024;-75
2023/08/08 03:55:07;;;;;;;2.78;1.70;;;;;;;11.89;100.00;100053.28;5073315;28;20020;-74
2023/08/08 03:57:32;;;;;;;11.50;2.15;;;;;;;11.93;100.00;100056.69;5074662;28;20031;-75
2023/08/08 03:59:57;;;;;;;4.88;1.58;;;;;;;11.92;100.00;100058.00;5074142;28;20048;-76
2023/08/08 04:02:24;;;;;;;6.55;1.65;;;;;;;11.95;100.00;100056.19;5074561;28;20104;-74
2023/08/08 04:04:50;;;;;;;3.28;1.50;;;;;;;11.90;100.00;100046.28;5090264;28;20044;-76
2023/08/08 04:07:15;;;;;;;4.07;1.63;;;;;;;11.93;100.00;100058.78;5074058;28;20048;-76
2023/08/08 04:09:42;;;;;;;3.85;1.67;;;;;;;11.90;100.00;100056.94;5089971;28;20511;-76
2023/08/08 04:12:07;;;;;;;6.68;1.50;;;;;;;11.90;100.00;100066.31;5089930;28;20020;-76
2023/08/08 04:14:33;;;;;;;2.40;1.60;;;;;;;11.91;100.00;100067.91;5074504;28;20500;-75
2023/08/08 04:16:59;;;;;;;10.43;1.70;;;;;;;11.94;100.00;100069.72;5089720;28;20024;-75
2023/08/08 04:19:24;;;;;;;5.53;1.73;;;;;;;11.96;100.00;100074.97;5074153;28;20021;-76
2023/08/08 04:21:50;;;;;;;3.03;1.45;;;;;;;11.97;100.00;100070.78;5089917;28;20024;-76
2023/08/08 04:24:15;;;;;;;3.35;1.65;;;;;;;11.99;100.00;100071.84;5074343;28;20036;-76
2023/08/08 04:26:40;;;;;;;4.60;1.73;;;;;;;12.01;100.00;100068.50;5072842;28;20439;-75
2023/08/08 04:29:06;;;;;;;3.72;1.60;;;;;;;12.04;100.00;100082.56;5074118;28;20439;-76
2023/08/08 04:31:31;;;;;;;4.40;1.55;;;;;;;12.07;100.00;100086.47;5072677;28;20024;-76
2023/08/08 04:34:00;;;;;;;3.95;1.45;;;;;;;12.17;100.00;100090.72;5089465;28;20032;-75
2023/08/08 04:36:28;;;;;;;2.67;1.35;;;;;;;12.38;100.00;100083.63;5089940;28;20032;-76
2023/08/08 04:38:54;;;;;;;3.65;1.55;;;;;;;12.50;100.00;100091.00;5073848;28;20040;-75
2023/08/08 04:41:20;;;;;;;2.97;1.42;;;;;;;12.65;100.00;100090.84;5073934;28;20462;-76
2023/08/08 04:43:45;;;;;;;3.00;1.55;;;;;;;12.77;100.00;100085.94;5089457;28;20016;-75
2023/08/08 04:46:11;;;;;;;9.98;3.10;;;;;;;13.00;100.00;100093.31;5073717;28;20020;-75
2023/08/08 04:48:37;;;;;;;3.42;1.55;;;;;;;13.17;100.00;100093.41;5074083;28;20031;-75
2023/08/08 04:51:08;;;;;;;5.63;1.40;;;;;;;13.26;100.00;100098.91;5073738;28;20021;-75
2023/08/08 04:53:34;;;;;;;1.67;1.30;;;;;;;13.26;100.00;100110.38;5073835;28;20024;-76
2023/08/08 04:56:00;;;;;;;6.15;1.70;;;;;;;13.38;100.00;100109.13;5089296;28;20458;-75
2023/08/08 04:58:25;;;;;;;2.58;1.20;;;;;;;13.51;100.00;100106.56;5055422;28;20032;-75
2023/08/08 05:00:51;;;;;;;2.80;1.40;;;;;;;13.63;100.00;100104.53;5073088;28;20414;-76
2023/08/08 05:03:18;;;;;;;4.43;1.60;;;;;;;13.71;100.00;100119.94;5088836;28;20028;-79
2023/08/08 05:05:45;;;;;;;3.00;1.40;;;;;;;13.84;100.00;100112.38;5072474;28;20036;-78
2023/08/08 05:08:14;;;;;;;2.53;1.42;;;;;;;14.07;100.00;100110.31;5089120;28;20040;-77
2023/08/08 05:10:39;;;;;;;4.22;1.40;;;;;;;14.29;100.00;100116.03;5073398;28;20102;-75
2023/08/08 05:13:05;;;;;;;2.40;1.40;;;;;;;14.43;100.00;100114.19;5072903;28;20048;-75
2023/08/08 05:15:31;;;;;;;3.40;1.48;;;;;;;14.65;100.00;100116.28;5073321;28;20038;-75
2023/08/08 05:17:59;;;;;;;4.53;1.23;;;;;;;14.79;100.00;100116.00;5071042;28;20032;-76
2023/08/08 05:20:25;;;;;;;3.10;1.65;;;;;;;14.95;100.00;100114.38;5072002;28;20029;-76
2023/08/08 05:22:50;;;;;;;5.40;1.60;;;;;;;15.15;100.00;100107.50;5089063;28;20027;-75
2023/08/08 05:25:17;;;;;;;4.43;1.42;;;;;;;15.29;100.00;100109.28;5073243;28;20477;-76
2023/08/08 05:27:43;;;;;;;5.50;1.40;;;;;;;15.30;100.00;100090.69;5073325;28;20028;-76
2023/08/08 05:30:09;;;;;;;4.40;1.75;;;;;;;15.35;100.00;100104.28;5071959;28;20029;-76
2023/08/08 05:32:36;;;;;;;4.95;1.75;;;;;;;15.44;100.00;100111.81;5073559;28;20117;-76
2023/08/08 05:35:04;;;;;;;3.60;1.52;;;;;;;15.47;100.00;100116.50;5055282;28;20016;-76
2023/08/08 05:37:30;;;;;;;2.75;1.42;;;;;;;15.51;100.00;100112.03;5073300;28;20029;-76
2023/08/08 05:39:57;;;;;;;4.07;1.40;;;;;;;15.60;100.00;100116.72;5055388;28;20043;-75
2023/08/08 05:42:23;;;;;;;4.55;1.40;;;;;;;15.73;100.00;100124.75;5071858;28;20028;-75
2023/08/08 05:44:49;;;;;;;6.03;2.15;;;;;;;15.82;100.00;100116.56;5073224;28;20038;-75
2023/08/08 05:47:14;;;;;;;3.28;1.35;;;;;;;15.97;100.00;100113.31;5072700;28;20164;-74
2023/08/08 05:49:43;;;;;;;5.82;1.98;;;;;;;16.11;100.00;100115.03;5086683;28;20080;-76
2023/08/08 05:52:09;;;;;;;6.40;2.25;;;;;;;16.12;100.00;100120.28;5070740;28;20056;-76
2023/08/08 05:54:34;;;;;;;22.90;3.95;;;;;;;16.06;100.00;100116.66;5086230;28;20458;-76
2023/08/08 05:57:00;;;;;;;6.97;1.40;;;;;;;16.07;100.00;100111.69;5070776;28;20032;-76
2023/08/08 05:59:25;;;;;;;3.75;1.48;;;;;;;16.19;100.00;100116.03;5071043;28;20024;-75
2023/08/08 06:01:51;;;;;;;9.70;2.42;;;;;;;16.35;100.00;100105.69;5069140;28;20099;-77
2023/08/08 06:04:17;;;;;;;5.50;1.48;;;;;;;16.37;100.00;100118.25;5068633;28;20029;-77
2023/08/08 06:06:42;;;;;;;6.25;1.27;;;;;;;16.26;100.00;100117.53;5057216;28;20028;-77
2023/08/08 06:09:12;;;;;;;7.47;1.70;;;;;;;16.39;100.00;100121.38;5057265;28;20078;-78
2023/08/08 06:11:38;;;;;;;3.28;1.23;;;;;;;16.37;100.00;100115.34;5070085;28;20043;-75
2023/08/08 06:14:04;;;;;;;8.25;1.75;;;;;;;16.34;100.00;100116.44;5072697;28;20481;-76
2023/08/08 06:16:32;;;;;;;5.43;1.60;;;;;;;16.33;100.00;100122.75;5072959;28;20400;-75
2023/08/08 06:18:58;;;;;;;5.00;1.73;;;;;;;16.29;100.00;100111.50;5069393;28;20063;-76
2023/08/08 06:21:24;;;;;;;6.20;1.55;;;;;;;16.23;100.00;100104.22;5062245;28;20064;-78
2023/08/08 06:23:54;;;;;;;4.43;1.67;;;;;;;16.23;100.00;100107.88;5058054;28;20147;-81
2023/08/08 06:26:21;;;;;;;4.68;2.08;;;;;;;16.27;100.00;100107.59;5070912;28;20024;-77
2023/08/08 06:28:47;;;;;;;3.67;1.77;;;;;;;16.53;100.00;100116.53;5054699;28;20044;-78
2023/08/08 06:31:12;;;;;;;5.45;2.00;;;;;;;16.71;100.00;100112.16;5057931;28;20029;-79
2023/08/08 06:33:38;;;;;;;5.65;2.00;;;;;;;16.90;100.00;100113.78;5076227;28;20359;-80
2023/08/08 06:36:03;;;;;;;2.38;1.27;;;;;;;17.10;100.00;100123.28;5075842;28;20036;-79
2023/08/08 06:38:33;;;;;;;8.95;1.33;;;;;;;17.55;100.00;100111.94;5075340;28;20518;-78
2023/08/08 06:41:02;;;;;;;3.17;1.40;;;;;;;18.40;100.00;100125.38;5062756;28;20470;-80
2023/08/08 06:43:28;;;;;;;2.60;1.20;;;;;;;18.95;100.00;100108.31;5055889;28;20454;-80
2023/08/08 06:45:55;;;;;;;2.92;1.63;;;;;;;19.73;100.00;100113.25;5054718;28;20123;-78
2023/08/08 06:48:22;;;;;;;4.03;1.60;;;;;;;20.54;100.00;100113.13;5056128;28;20078;-76
2023/08/08 06:50:48;;;;;;;6.80;1.10;;;;;;;21.32;87.87;100118.91;5055938;28;20037;-76
2023/08/08 06:53:15;;;;;;;3.60;1.30;;;;;;;21.44;78.27;100120.13;5066455;28;20079;-76
2023/08/08 06:55:40;;;;;;;8.40;1.45;;;;;;;22.20;71.01;100121.22;5075464;28;20031;-77
2023/08/08 06:58:06;;;;;;;4.15;1.65;;;;;;;23.29;62.67;100133.84;5076053;28;20020;-77
2023/08/08 07:00:31;;;;;;;4.90;1.10;;;;;;;24.24;55.49;100121.41;5073995;28;20060;-79
2023/08/08 07:02:57;;;;;;;12.07;1.90;;;;;;;24.89;54.68;100122.09;5074618;28;20029;-79
2023/08/08 07:05:24;;;;;;;6.60;1.30;;;;;;;25.19;53.90;100130.53;5075548;28;20089;-79
2023/08/08 07:07:52;;;;;;;2.15;0.90;;;;;;;25.11;46.45;100126.94;5075472;28;20457;-76
2023/08/08 07:10:19;;;;;;;12.63;1.65;;;;;;;24.88;45.12;100130.09;5091789;28;20077;-76
2023/08/08 07:12:45;;;;;;;7.32;1.50;;;;;;;24.32;49.84;100119.97;5074453;28;20064;-78
2023/08/08 07:15:11;;;;;;;9.73;1.73;;;;;;;23.91;53.33;100132.25;5074450;28;20436;-80
2023/08/08 07:17:37;;;;;;;6.10;1.45;;;;;;;23.32;57.86;100118.84;5076091;28;20468;-76
2023/08/08 07:20:05;;;;;;;3.78;1.50;;;;;;;22.85;60.71;100107.06;5073469;28;20500;-76
2023/08/08 07:22:32;;;;;;;3.88;1.58;;;;;;;22.57;63.86;100113.13;5084980;28;20137;-76
2023/08/08 07:24:57;;;;;;;4.35;1.08;;;;;;;22.21;61.11;100116.97;5080914;28;20036;-78
2023/08/08 07:27:23;;;;;;;2.05;0.80;;;;;;;21.50;65.25;100117.88;5080360;28;20039;-80
2023/08/08 07:29:48;;;;;;;2.53;1.25;;;;;;;21.32;65.27;100099.34;5074677;28;20504;-77
2023/08/08 07:32:14;;;;;;;1.08;0.88;;;;;;;21.29;66.37;100097.56;5072216;28;20029;-76
2023/08/08 07:34:39;;;;;;;4.57;0.80;;;;;;;21.38;65.76;100108.69;5083901;28;20055;-80
2023/08/08 07:37:05;;;;;;;5.53;1.00;;;;;;;21.28;61.68;100116.38;5094866;28;20359;-79
2023/08/08 07:39:30;;;;;;;10.77;1.50;;;;;;;20.97;62.55;100115.41;5094883;28;20119;-79
2023/08/08 07:41:57;;;;;;;12.48;1.55;;;;;;;20.98;62.57;100119.88;5093236;28;20040;-78
2023/08/08 07:44:23;;;;;;;3.15;1.38;;;;;;;21.37;66.50;100123.78;5082594;28;20040;-79
2023/08/08 07:46:49;;;;;;;3.53;1.10;;;;;;;22.02;58.29;100119.41;5074467;28;20031;-77
2023/08/08 07:49:23;;;;;;;6.30;1.13;;;;;;;22.51;58.58;100119.91;5069070;28;20115;-78
2023/08/08 07:51:48;;;;;;;3.88;1.60;;;;;;;22.62;63.42;100123.81;5054554;28;20021;-79
2023/08/08 07:54:13;;;;;;;5.85;1.10;;;;;;;23.01;56.45;100126.13;5053822;28;20039;-78
2023/08/08 07:56:40;;;;;;;3.45;1.10;;;;;;;23.22;60.15;100123.75;5051741;28;20036;-77
2023/08/08 07:59:05;;;;;;;9.90;1.67;;;;;;;23.64;50.44;100123.25;5053132;28;20128;-80
2023/08/08 08:01:32;;;;;;;1.25;0.63;;;;;;;24.13;49.22;100137.22;5054216;28;20568;-78
2023/08/08 08:03:58;;;;;;;4.93;0.75;;;;;;;23.07;43.63;100117.16;5076122;28;20043;-78
2023/08/08 08:06:23;;;;;;;4.88;1.05;;;;;;;22.85;45.28;100119.50;5081614;28;20488;-80
2023/08/08 08:08:49;;;;;;;4.18;1.15;;;;;;;22.69;49.34;100131.75;5061542;28;20044;-78
2023/08/08 08:11:16;;;;;;;0.60;0.60;;;;;;;22.94;49.49;100124.78;5053841;28;20025;-80
2023/08/08 08:13:41;;;;;;;4.25;0.85;;;;;;;23.29;56.21;100110.50;5049190;28;20044;-79
2023/08/08 08:16:06;;;;;;;1.85;1.48;;;;;;;23.35;48.34;100116.91;5051213;28;20029;-80
2023/08/08 08:18:33;;;;;;;3.08;0.52;;;;;;;23.22;49.76;100126.66;5045482;28;20037;-79
2023/08/08 08:21:01;;;;;;;0.95;0.65;;;;;;;22.82;45.91;100114.84;5052110;28;20116;-78
2023/08/08 08:23:27;;;;;;;2.65;0.80;;;;;;;22.78;46.05;100108.63;5034796;28;20032;-79
2023/08/08 08:25:53;;;;;;;3.83;0.95;;;;;;;23.11;48.96;100112.47;5050802;28;20504;-82
2023/08/08 08:28:20;;;;;;;3.17;0.70;;;;;;;22.69;46.16;100108.44;5051634;28;20028;-82
2023/08/08 08:30:46;;;;;;;8.82;1.08;;;;;;;22.31;48.20;100094.66;5053556;28;20047;-82
2023/08/08 08:33:11;;;;;;;2.63;1.00;;;;;;;22.41;49.12;100107.28;5053760;28;20158;-79
2023/08/08 08:35:38;;;;;;;4.57;0.82;;;;;;;22.82;49.45;100105.31;5092948;28;20093;-77
2023/08/08 08:38:07;;;;;;;3.67;0.93;;;;;;;22.92;44.28;100115.81;5058003;28;20025;-79
2023/08/08 08:40:36;;;;;;;0.80;0.70;;;;;;;23.02;46.30;100101.44;5036919;28;20497;-76
2023/08/08 08:43:02;;;;;;;26.25;3.42;;;;;;;23.06;46.04;100103.97;5051666;28;20083;-80
2023/08/08 08:45:29;;;;;;;12.55;2.47;;;;;;;22.41;46.83;100107.28;5064055;28;20044;-79
2023/08/08 08:47:57;;;;;;;4.35;0.80;;;;;;;22.13;47.62;100109.53;5068046;28;20025;-77
2023/08/08 08:50:23;;;;;;;2.80;1.05;;;;;;;21.18;49.57;100095.78;5065349;28;20048;-78
2023/08/08 08:52:49;;;;;;;2.63;0.90;;;;;;;20.38;53.18;100114.34;5068042;28;20016;-79
2023/08/08 08:55:15;;;;;;;3.42;0.90;;;;;;;19.93;55.58;100100.94;5070123;28;20462;-78
2023/08/08 08:57:41;;;;;;;2.22;1.20;;;;;;;20.00;57.03;100113.97;5063674;28;20449;-77
2023/08/08 09:00:07;;;;;;;2.38;0.85;;;;;;;20.25;60.25;100112.25;5061157;28;20051;-76
2023/08/08 09:02:32;;;;;;;2.40;0.90;;;;;;;20.45;61.78;100104.91;5072667;28;20031;-79
2023/08/08 09:05:01;;;;;;;5.15;1.00;;;;;;;20.88;60.28;100112.25;5087477;28;20044;-77
2023/08/08 09:07:28;;;;;;;2.22;0.93;;;;;;;21.36;52.31;100101.88;5065929;28;20107;-78
2023/08/08 09:09:55;;;;;;;1.95;0.65;;;;;;;21.33;52.09;100109.63;5062326;28;20048;-78
2023/08/08 09:12:20;;;;;;;1.77;0.50;;;;;;;21.27;53.35;100105.31;5078566;28;20051;-77
2023/08/08 09:14:45;;;;;;;5.07;0.95;;;;;;;21.13;52.38;100095.94;5091308;28;20024;-79
2023/08/08 09:17:13;;;;;;;1.55;0.77;;;;;;;21.29;60.53;100106.28;5091120;28;20106;-80
2023/08/08 09:19:39;;;;;;;6.07;1.23;;;;;;;21.81;61.06;100084.63;5092343;28;20024;-81
2023/08/08 09:22:04;;;;;;;3.80;0.70;;;;;;;22.21;50.95;100101.63;5093772;28;20023;-80
2023/08/08 09:24:31;;;;;;;1.45;0.82;;;;;;;22.31;48.83;100097.56;5092200;28;20074;-78
2023/08/08 09:26:57;;;;;;;2.25;0.88;;;;;;;22.24;55.18;100095.41;5064731;28;20035;-83
2023/08/08 09:29:23;;;;;;;1.50;0.77;;;;;;;22.28;54.65;100100.84;5070036;28;20045;-82
2023/08/08 09:31:49;;;;;;;4.80;1.02;;;;;;;22.51;50.46;100095.84;5072926;28;20025;-79
2023/08/08 09:34:14;;;;;;;3.25;0.73;;;;;;;22.46;52.53;100105.53;5071944;28;20048;-80
2023/08/08 09:36:40;;;;;;;2.90;0.93;;;;;;;22.83;54.83;100096.00;5072011;28;20084;-80
2023/08/08 09:39:07;;;;;;;22.13;4.60;;;;;;;23.45;52.57;100103.28;5073546;28;20063;-79
2023/08/08 09:41:32;;;;;;;5.68;1.63;;;;;;;23.86;48.39;100104.84;5073398;28;20025;-77
2023/08/08 09:43:59;;;;;;;4.90;1.20;;;;;;;24.19;47.45;100109.34;5077082;28;20032;-80
2023/08/08 09:46:26;;;;;;;3.58;0.85;;;;;;;23.79;44.50;100102.75;5084330;28;20599;-76
2023/08/08 09:48:51;;;;;;;52.33;6.95;;;;;;;23.69;46.02;100113.50;5051665;28;20486;-76
2023/08/08 09:51:17;;;;;;;6.38;1.17;;;;;;;22.63;43.31;100104.94;5068403;28;20029;-78
2023/08/08 09:53:44;;;;;;;10.02;1.00;;;;;;;22.12;45.89;100105.88;5066085;28;20021;-77
2023/08/08 09:56:09;;;;;;;7.05;0.88;;;;;;;21.34;48.47;100114.06;5088819;28;20180;-80
2023/08/08 09:58:34;;;;;;;0.80;0.80;;;;;;;21.02;53.06;100114.47;5073047;28;20032;-77
2023/08/08 10:01:00;;;;;;;2.97;0.65;;;;;;;20.99;54.84;100111.94;5072789;28;20056;-79
2023/08/08 10:03:28;;;;;;;1.00;0.90;;;;;;;20.81;54.22;100099.22;5073332;28;20048;-81
2023/08/08 10:05:54;;;;;;;0.95;0.80;;;;;;;20.78;56.34;100109.09;5076738;28;20457;-81
2023/08/08 10:08:21;;;;;;;1.42;0.57;;;;;;;20.83;58.51;100110.28;5077221;28;20031;-81
2023/08/08 10:10:47;;;;;;;3.10;0.90;;;;;;;20.75;59.99;100108.09;5075478;28;20029;-80
2023/08/08 10:13:23;;;;;;;8.30;1.13;;;;;;;20.84;60.64;100106.81;5073474;28;20389;-77
2023/08/08 10:15:49;;;;;;;2.17;0.70;;;;;;;20.46;54.47;100100.66;5075122;28;20534;-84
2023/08/08 10:18:15;;;;;;;16.63;2.33;;;;;;;20.29;57.06;100114.84;5074673;28;20029;-80
2023/08/08 10:20:45;;;;;;;8.40;1.20;;;;;;;20.15;63.92;100102.50;5108191;28;20020;-83
2023/08/08 10:23:10;;;;;;;1.45;0.82;;;;;;;19.57;66.84;100097.00;5076744;28;20095;-83
2023/08/08 10:25:36;;;;;;;2.80;0.80;;;;;;;19.34;72.03;100088.03;5077472;28;20032;-79
2023/08/08 10:28:14;;;;;;;1.73;1.17;;;;;;;19.29;75.61;100091.03;5076689;28;20047;-76
2023/08/08 10:30:46;;;;;;;2.70;1.42;;;;;;;19.43;74.46;100090.47;5092313;28;20036;-81
2023/08/08 10:33:16;;;;;;;4.03;1.00;;;;;;;19.50;72.86;100091.91;5076532;28;20033;-79
2023/08/08 10:35:53;;;;;;;2.88;1.05;;;;;;;19.67;74.90;100088.59;5075060;28;20033;-81
2023/08/08 10:38:18;;;;;;;1.25;0.80;;;;;;;19.71;76.01;100086.16;5075369;28;20029;-80
2023/08/08 10:40:44;;;;;;;3.13;1.13;;;;;;;19.74;77.29;100093.72;5076147;28;20050;-78
2023/08/08 10:43:12;;;;;;;1.65;1.05;;;;;;;19.94;76.90;100088.00;5092005;28;20040;-78
2023/08/08 10:45:42;;;;;;;3.65;1.05;;;;;;;19.97;83.19;100080.28;5076128;28;20039;-76
2023/08/08 10:48:09;;;;;;;1.88;1.13;;;;;;;20.30;84.63;100075.78;5074730;28;20116;-74
2023/08/08 10:50:38;;;;;;;1.35;1.10;;;;;;;20.30;75.60;100081.56;5076226;28;20040;-76
2023/08/08 10:53:03;;;;;;;4.85;1.30;;;;;;;20.51;76.05;100085.22;5091747;28;20032;-76
2023/08/08 10:55:35;;;;;;;4.13;1.00;;;;;;;20.79;69.76;100079.44;5076189;28;20085;-78
2023/08/08 10:58:12;;;;;;;2.47;0.90;;;;;;;20.84;69.63;100074.88;5076082;28;20035;-76
2023/08/08 11:00:42;;;;;;;3.60;1.00;;;;;;;21.05;71.41;100084.28;5057864;28;20063;-76
2023/08/08 11:03:08;;;;;;;5.40;1.10;;;;;;;21.30;63.92;100083.81;5074704;28;20060;-78
2023/08/08 11:05:36;;;;;;;5.97;1.33;;;;;;;21.56;73.98;100074.84;5075524;28;20549;-79
2023/08/08 11:08:03;;;;;;;3.50;1.20;;;;;;;21.79;69.17;100069.09;5091533;28;20449;-79
2023/08/08 11:10:31;;;;;;;3.83;1.08;;;;;;;21.86;68.13;100069.13;5075918;28;20075;-79
2023/08/08 11:13:01;;;;;;;3.00;1.55;;;;;;;21.57;66.92;100056.06;5076180;28;20040;-78
2023/08/08 11:15:27;;;;;;;3.50;1.00;;;;;;;21.36;65.55;100061.97;5073408;28;20127;-81
2023/08/08 11:17:54;;;;;;;4.03;1.13;;;;;;;20.96;66.27;100066.59;5064736;28;20024;-79